sensor_id;sensor_type;location;lat;lon;timestamp;temperature;humidity
12893;DHT22;6514;48.606;9.222;2023-07-31T00:01:07;13.60;99.90
12893;DHT22;6514;48.606;9.222;2023-07-31T00:03:34;13.60;99.90
12893;DHT22;6514;48.606;9.222;2023-07-31T00:06:00;13.50;99.90
12893;DHT22;6514;48.606;9.222;2023-07-31T00:08:27;13.50;99.90
12893;DHT22;6514;48.606;9.222;2023-07-31T00:10:55;13.40;99.90
12893;DHT22;6514;48.606;9.222;2023-07-31T00:13:22;13.40;99.90
12893;DHT22;6514;48.606;9.222;2023-07-31T00:15:49;13.30;99.90
12893;DHT22;6514;48.606;9.222;2023-07-31T00:18:16;13.30;99.90
12893;DHT22;6514;48.606;9.222;2023-07-31T00:20:43;13.30;99.90
12893;DHT22;6514;48.606;9.222;2023-07-31T00:23:09;13.30;99.90
12893;DHT22;6514;48.606;9.222;2023-07-31T00:25:36;13.40;99.90
12893;DHT22;6514;48.606;9.222;2023-07-31T00:28:04;13.40;99.90
12893;DHT22;6514;48.606;9.222;2023-07-31T00:30:31;13.40;99.90
12893;DHT22;6514;48.606;9.222;2023-07-31T00:32:58;13.40;99.90
12893;DHT22;6514;48.606;9.222;2023-07-31T00:35:25;13.40;99.90
12893;DHT22;6514;48.606;9.222;2023-07-31T00:37:51;13.40;99.90
12893;DHT22;6514;48.606;9.222;2023-07-31T00:40:18;13.50;99.90
12893;DHT22;6514;48.606;9.222;2023-07-31T00:42:45;13.40;99.90
12893;DHT22;6514;48.606;9.222;2023-07-31T00:45:13;13.40;99.90
12893;DHT22;6514;48.606;9.222;2023-07-31T00:47:40;13.30;99.90
12893;DHT22;6514;48.606;9.222;2023-07-31T00:50:07;13.30;99.90
12893;DHT22;6514;48.606;9.222;2023-07-31T00:52:35;13.30;99.90
12893;DHT22;6514;48.606;9.222;2023-07-31T00:55:02;13.20;99.90
12893;DHT22;6514;48.606;9.222;2023-07-31T00:57:30;13.20;99.90
12893;DHT22;6514;48.606;9.222;2023-07-31T00:59:58;13.20;99.90
12893;DHT22;6514;48.606;9.222;2023-07-31T01:02:26;13.10;99.90
12893;DHT22;6514;48.606;9.222;2023-07-31T01:04:53;13.10;99.90
12893;DHT22;6514;48.606;9.222;2023-07-31T01:07:25;13.00;99.90
12893;DHT22;6514;48.606;9.222;2023-07-31T01:10:00;13.00;99.90
12893;DHT22;6514;48.606;9.222;2023-07-31T01:12:30;13.00;99.90
12893;DHT22;6514;48.606;9.222;2023-07-31T01:15:05;12.90;99.90
12893;DHT22;6514;48.606;9.222;2023-07-31T01:17:33;12.90;99.90
12893;DHT22;6514;48.606;9.222;2023-07-31T01:20:02;12.90;99.90
12893;DHT22;6514;48.606;9.222;2023-07-31T01:22:48;13.00;99.90
12893;DHT22;6514;48.606;9.222;2023-07-31T01:25:31;13.00;99.90
12893;DHT22;6514;48.606;9.222;2023-07-31T01:28:07;13.00;99.90
12893;DHT22;6514;48.606;9.222;2023-07-31T01:30:39;13.00;99.90
12893;DHT22;6514;48.606;9.222;2023-07-31T01:33:08;13.00;99.90
12893;DHT22;6514;48.606;9.222;2023-07-31T01:35:36;13.00;99.90
12893;DHT22;6514;48.606;9.222;2023-07-31T01:38:03;13.00;99.90
12893;DHT22;6514;48.606;9.222;2023-07-31T01:40:31;12.90;99.90
12893;DHT22;6514;48.606;9.222;2023-07-31T01:42:57;12.90;99.90
12893;DHT22;6514;48.606;9.222;2023-07-31T01:45:25;12.90;99.90
12893;DHT22;6514;48.606;9.222;2023-07-31T01:47:52;12.80;99.90
12893;DHT22;6514;48.606;9.222;2023-07-31T01:50:19;12.80;99.90
12893;DHT22;6514;48.606;9.222;2023-07-31T01:52:46;12.70;99.90
12893;DHT22;6514;48.606;9.222;2023-07-31T01:55:13;12.70;99.90
12893;DHT22;6514;48.606;9.222;2023-07-31T01:57:40;12.70;99.90
12893;DHT22;6514;48.606;9.222;2023-07-31T02:00:07;12.70;99.90
12893;DHT22;6514;48.606;9.222;2023-07-31T02:02:36;12.70;99.90
12893;DHT22;6514;48.606;9.222;2023-07-31T02:05:03;12.70;99.90
12893;DHT22;6514;48.606;9.222;2023-07-31T02:07:29;12.60;99.90
12893;DHT22;6514;48.606;9.222;2023-07-31T02:09:56;12.60;99.90
12893;DHT22;6514;48.606;9.222;2023-07-31T02:12:23;12.60;99.90
12893;DHT22;6514;48.606;9.222;2023-07-31T02:14:50;12.60;99.90
12893;DHT22;6514;48.606;9.222;2023-07-31T02:17:17;12.60;99.90
12893;DHT22;6514;48.606;9.222;2023-07-31T02:19:45;12.50;99.90
12893;DHT22;6514;48.606;9.222;2023-07-31T02:22:12;12.60;99.90
12893;DHT22;6514;48.606;9.222;2023-07-31T02:24:39;12.60;99.90
12893;DHT22;6514;48.606;9.222;2023-07-31T02:27:06;12.50;99.90
12893;DHT22;6514;48.606;9.222;2023-07-31T02:29:33;12.50;99.90
12893;DHT22;6514;48.606;9.222;2023-07-31T02:31:59;12.40;99.90
12893;DHT22;6514;48.606;9.222;2023-07-31T02:34:26;12.50;99.90
12893;DHT22;6514;48.606;9.222;2023-07-31T02:36:54;12.40;99.90
12893;DHT22;6514;48.606;9.222;2023-07-31T02:39:21;12.30;99.90
12893;DHT22;6514;48.606;9.222;2023-07-31T02:41:48;12.30;99.90
12893;DHT22;6514;48.606;9.222;2023-07-31T02:44:15;12.30;99.90
12893;DHT22;6514;48.606;9.222;2023-07-31T02:46:42;12.20;99.90
12893;DHT22;6514;48.606;9.222;2023-07-31T02:49:08;12.20;99.90
12893;DHT22;6514;48.606;9.222;2023-07-31T02:51:35;12.20;99.90
12893;DHT22;6514;48.606;9.222;2023-07-31T02:54:03;12.10;99.90
12893;DHT22;6514;48.606;9.222;2023-07-31T02:56:30;12.10;99.90
12893;DHT22;6514;48.606;9.222;2023-07-31T02:58:57;12.10;99.90
12893;DHT22;6514;48.606;9.222;2023-07-31T03:01:23;12.10;99.90
12893;DHT22;6514;48.606;9.222;2023-07-31T03:03:51;12.00;99.90
12893;DHT22;6514;48.606;9.222;2023-07-31T03:06:17;12.10;99.90
12893;DHT22;6514;48.606;9.222;2023-07-31T03:08:44;12.00;99.90
12893;DHT22;6514;48.606;9.222;2023-07-31T03:11:13;12.00;99.90
12893;DHT22;6514;48.606;9.222;2023-07-31T03:13:40;12.00;99.90
12893;DHT22;6514;48.606;9.222;2023-07-31T03:16:06;12.00;99.90
12893;DHT22;6514;48.606;9.222;2023-07-31T03:18:33;12.00;99.90
12893;DHT22;6514;48.606;9.222;2023-07-31T03:21:00;12.00;99.90
12893;DHT22;6514;48.606;9.222;2023-07-31T03:23:27;12.00;99.90
12893;DHT22;6514;48.606;9.222;2023-07-31T03:25:57;12.00;99.90
12893;DHT22;6514;48.606;9.222;2023-07-31T03:28:25;12.00;99.90
12893;DHT22;6514;48.606;9.222;2023-07-31T03:30:52;12.00;99.90
12893;DHT22;6514;48.606;9.222;2023-07-31T03:33:19;12.00;99.90
12893;DHT22;6514;48.606;9.222;2023-07-31T03:35:46;12.00;99.90
12893;DHT22;6514;48.606;9.222;2023-07-31T03:38:13;12.00;99.90
12893;DHT22;6514;48.606;9.222;2023-07-31T03:40:40;12.00;99.90
12893;DHT22;6514;48.606;9.222;2023-07-31T03:43:06;11.90;99.90
12893;DHT22;6514;48.606;9.222;2023-07-31T03:45:34;11.90;99.90
12893;DHT22;6514;48.606;9.222;2023-07-31T03:48:01;11.90;99.90
12893;DHT22;6514;48.606;9.222;2023-07-31T03:50:28;11.90;99.90
12893;DHT22;6514;48.606;9.222;2023-07-31T03:52:55;11.90;99.90
12893;DHT22;6514;48.606;9.222;2023-07-31T03:55:22;12.00;99.90
12893;DHT22;6514;48.606;9.222;2023-07-31T03:57:49;12.10;99.90
12893;DHT22;6514;48.606;9.222;2023-07-31T04:00:16;12.20;99.90
12893;DHT22;6514;48.606;9.222;2023-07-31T04:02:44;12.30;99.90
12893;DHT22;6514;48.606;9.222;2023-07-31T04:05:11;12.40;99.90
12893;DHT22;6514;48.606;9.222;2023-07-31T04:07:37;12.50;99.90
12893;DHT22;6514;48.606;9.222;2023-07-31T04:10:05;12.60;99.90
12893;DHT22;6514;48.606;9.222;2023-07-31T04:12:32;12.70;99.90
12893;DHT22;6514;48.606;9.222;2023-07-31T04:14:58;12.80;99.90
12893;DHT22;6514;48.606;9.222;2023-07-31T04:17:25;12.90;99.90
12893;DHT22;6514;48.606;9.222;2023-07-31T04:19:53;13.00;99.90
12893;DHT22;6514;48.606;9.222;2023-07-31T04:22:20;13.00;99.90
12893;DHT22;6514;48.606;9.222;2023-07-31T04:24:47;13.10;99.90
12893;DHT22;6514;48.606;9.222;2023-07-31T04:27:14;13.10;99.90
12893;DHT22;6514;48.606;9.222;2023-07-31T04:29:41;13.20;99.90
12893;DHT22;6514;48.606;9.222;2023-07-31T04:32:09;13.30;99.90
12893;DHT22;6514;48.606;9.222;2023-07-31T04:34:36;13.30;99.90
12893;DHT22;6514;48.606;9.222;2023-07-31T04:37:05;13.30;99.90
12893;DHT22;6514;48.606;9.222;2023-07-31T04:39:31;13.30;99.90
12893;DHT22;6514;48.606;9.222;2023-07-31T04:41:58;13.40;99.90
12893;DHT22;6514;48.606;9.222;2023-07-31T04:44:25;13.40;99.90
12893;DHT22;6514;48.606;9.222;2023-07-31T04:46:52;13.50;99.90
12893;DHT22;6514;48.606;9.222;2023-07-31T04:49:19;13.50;99.90
12893;DHT22;6514;48.606;9.222;2023-07-31T04:51:46;13.60;99.90
12893;DHT22;6514;48.606;9.222;2023-07-31T04:54:14;13.60;99.90
12893;DHT22;6514;48.606;9.222;2023-07-31T04:56:41;13.70;99.90
12893;DHT22;6514;48.606;9.222;2023-07-31T04:59:08;13.80;99.90
12893;DHT22;6514;48.606;9.222;2023-07-31T05:01:35;13.80;99.90
12893;DHT22;6514;48.606;9.222;2023-07-31T05:04:01;13.90;99.90
12893;DHT22;6514;48.606;9.222;2023-07-31T05:06:28;14.00;99.90
12893;DHT22;6514;48.606;9.222;2023-07-31T05:08:55;14.10;99.90
12893;DHT22;6514;48.606;9.222;2023-07-31T05:11:23;14.20;99.90
12893;DHT22;6514;48.606;9.222;2023-07-31T05:13:50;14.20;99.90
12893;DHT22;6514;48.606;9.222;2023-07-31T05:16:17;14.40;99.90
12893;DHT22;6514;48.606;9.222;2023-07-31T05:18:44;14.50;99.90
12893;DHT22;6514;48.606;9.222;2023-07-31T05:21:10;14.50;99.90
12893;DHT22;6514;48.606;9.222;2023-07-31T05:23:37;14.60;99.90
12893;DHT22;6514;48.606;9.222;2023-07-31T05:26:04;14.60;99.90
12893;DHT22;6514;48.606;9.222;2023-07-31T05:28:34;14.70;99.90
12893;DHT22;6514;48.606;9.222;2023-07-31T05:31:01;14.80;99.90
12893;DHT22;6514;48.606;9.222;2023-07-31T05:33:28;14.80;99.90
12893;DHT22;6514;48.606;9.222;2023-07-31T05:35:55;14.90;99.90
12893;DHT22;6514;48.606;9.222;2023-07-31T05:38:22;15.00;99.90
12893;DHT22;6514;48.606;9.222;2023-07-31T05:40:49;15.10;99.90
12893;DHT22;6514;48.606;9.222;2023-07-31T05:43:16;15.20;99.90
12893;DHT22;6514;48.606;9.222;2023-07-31T05:45:44;15.30;99.90
12893;DHT22;6514;48.606;9.222;2023-07-31T05:48:11;15.50;99.90
12893;DHT22;6514;48.606;9.222;2023-07-31T05:50:38;15.70;99.90
12893;DHT22;6514;48.606;9.222;2023-07-31T05:53:05;15.90;99.90
12893;DHT22;6514;48.606;9.222;2023-07-31T05:55:33;16.00;99.90
12893;DHT22;6514;48.606;9.222;2023-07-31T05:58:00;16.30;99.90
12893;DHT22;6514;48.606;9.222;2023-07-31T06:00:27;16.50;99.90
12893;DHT22;6514;48.606;9.222;2023-07-31T06:02:56;16.90;99.90
12893;DHT22;6514;48.606;9.222;2023-07-31T06:05:23;17.10;99.90
12893;DHT22;6514;48.606;9.222;2023-07-31T06:07:50;17.30;99.90
12893;DHT22;6514;48.606;9.222;2023-07-31T06:10:17;17.50;99.90
12893;DHT22;6514;48.606;9.222;2023-07-31T06:12:44;17.50;99.90
12893;DHT22;6514;48.606;9.222;2023-07-31T06:15:11;17.50;99.90
12893;DHT22;6514;48.606;9.222;2023-07-31T06:17:37;17.60;99.90
12893;DHT22;6514;48.606;9.222;2023-07-31T06:20:07;17.70;99.90
12893;DHT22;6514;48.606;9.222;2023-07-31T06:22:34;17.90;99.90
12893;DHT22;6514;48.606;9.222;2023-07-31T06:25:01;17.90;99.90
12893;DHT22;6514;48.606;9.222;2023-07-31T06:27:28;18.00;99.90
12893;DHT22;6514;48.606;9.222;2023-07-31T06:29:54;17.90;99.90
12893;DHT22;6514;48.606;9.222;2023-07-31T06:32:21;17.90;99.90
12893;DHT22;6514;48.606;9.222;2023-07-31T06:34:48;18.00;99.90
12893;DHT22;6514;48.606;9.222;2023-07-31T06:37:16;18.00;99.90
12893;DHT22;6514;48.606;9.222;2023-07-31T06:39:43;17.90;99.90
12893;DHT22;6514;48.606;9.222;2023-07-31T06:42:10;18.00;99.90
12893;DHT22;6514;48.606;9.222;2023-07-31T06:44:37;18.20;99.90
12893;DHT22;6514;48.606;9.222;2023-07-31T06:47:04;18.30;99.90
12893;DHT22;6514;48.606;9.222;2023-07-31T06:49:34;18.50;99.90
12893;DHT22;6514;48.606;9.222;2023-07-31T06:52:00;18.70;99.90
12893;DHT22;6514;48.606;9.222;2023-07-31T06:54:29;19.00;99.90
12893;DHT22;6514;48.606;9.222;2023-07-31T06:56:55;19.20;99.90
12893;DHT22;6514;48.606;9.222;2023-07-31T06:59:22;19.60;99.90
12893;DHT22;6514;48.606;9.222;2023-07-31T07:01:49;20.10;99.90
12893;DHT22;6514;48.606;9.222;2023-07-31T07:04:16;20.50;99.90
12893;DHT22;6514;48.606;9.222;2023-07-31T07:06:43;20.80;99.90
12893;DHT22;6514;48.606;9.222;2023-07-31T07:09:09;21.10;99.90
12893;DHT22;6514;48.606;9.222;2023-07-31T07:11:37;21.30;99.90
12893;DHT22;6514;48.606;9.222;2023-07-31T07:14:04;21.30;99.90
12893;DHT22;6514;48.606;9.222;2023-07-31T07:16:31;21.30;99.90
12893;DHT22;6514;48.606;9.222;2023-07-31T07:18:58;21.40;99.90
12893;DHT22;6514;48.606;9.222;2023-07-31T07:21:25;21.40;99.90
12893;DHT22;6514;48.606;9.222;2023-07-31T07:23:51;21.30;99.90
12893;DHT22;6514;48.606;9.222;2023-07-31T07:26:18;21.10;99.90
12893;DHT22;6514;48.606;9.222;2023-07-31T07:28:46;20.80;99.90
12893;DHT22;6514;48.606;9.222;2023-07-31T07:31:13;20.60;99.90
12893;DHT22;6514;48.606;9.222;2023-07-31T07:33:41;20.40;99.90
12893;DHT22;6514;48.606;9.222;2023-07-31T07:36:07;20.20;99.90
12893;DHT22;6514;48.606;9.222;2023-07-31T07:38:35;20.20;99.90
12893;DHT22;6514;48.606;9.222;2023-07-31T07:41:02;20.00;99.90
12893;DHT22;6514;48.606;9.222;2023-07-31T07:43:29;19.80;99.90
12893;DHT22;6514;48.606;9.222;2023-07-31T07:45:57;19.60;99.90
12893;DHT22;6514;48.606;9.222;2023-07-31T07:48:24;19.50;99.90
12893;DHT22;6514;48.606;9.222;2023-07-31T07:50:51;19.50;99.90
12893;DHT22;6514;48.606;9.222;2023-07-31T07:53:18;19.60;99.90
12893;DHT22;6514;48.606;9.222;2023-07-31T07:55:45;19.60;99.90
12893;DHT22;6514;48.606;9.222;2023-07-31T07:58:12;20.10;99.90
12893;DHT22;6514;48.606;9.222;2023-07-31T08:00:38;20.70;99.90
12893;DHT22;6514;48.606;9.222;2023-07-31T08:03:07;21.20;99.90
12893;DHT22;6514;48.606;9.222;2023-07-31T08:05:34;21.70;99.90
12893;DHT22;6514;48.606;9.222;2023-07-31T08:08:00;21.90;99.90
12893;DHT22;6514;48.606;9.222;2023-07-31T08:10:27;21.80;99.90
12893;DHT22;6514;48.606;9.222;2023-07-31T08:12:54;21.80;99.90
12893;DHT22;6514;48.606;9.222;2023-07-31T08:15:21;21.90;99.90
12893;DHT22;6514;48.606;9.222;2023-07-31T08:17:48;22.20;99.90
12893;DHT22;6514;48.606;9.222;2023-07-31T08:20:16;22.60;99.90
12893;DHT22;6514;48.606;9.222;2023-07-31T08:22:43;22.90;99.90
12893;DHT22;6514;48.606;9.222;2023-07-31T08:25:09;23.10;99.90
12893;DHT22;6514;48.606;9.222;2023-07-31T08:27:36;23.10;99.90
12893;DHT22;6514;48.606;9.222;2023-07-31T08:30:04;23.30;99.90
12893;DHT22;6514;48.606;9.222;2023-07-31T08:32:31;23.40;99.90
12893;DHT22;6514;48.606;9.222;2023-07-31T08:34:58;23.50;99.90
12893;DHT22;6514;48.606;9.222;2023-07-31T08:37:26;23.60;99.90
12893;DHT22;6514;48.606;9.222;2023-07-31T08:39:53;23.80;99.90
12893;DHT22;6514;48.606;9.222;2023-07-31T08:42:20;23.80;99.90
12893;DHT22;6514;48.606;9.222;2023-07-31T08:44:47;24.00;99.90
12893;DHT22;6514;48.606;9.222;2023-07-31T08:47:16;24.20;99.90
12893;DHT22;6514;48.606;9.222;2023-07-31T08:49:43;24.60;99.90
12893;DHT22;6514;48.606;9.222;2023-07-31T08:52:11;25.00;99.90
12893;DHT22;6514;48.606;9.222;2023-07-31T08:54:39;25.30;99.90
12893;DHT22;6514;48.606;9.222;2023-07-31T08:57:06;25.60;99.90
12893;DHT22;6514;48.606;9.222;2023-07-31T08:59:35;25.90;99.90
12893;DHT22;6514;48.606;9.222;2023-07-31T09:02:05;26.00;99.90
12893;DHT22;6514;48.606;9.222;2023-07-31T09:04:33;26.30;99.90
12893;DHT22;6514;48.606;9.222;2023-07-31T09:07:01;26.70;99.90
12893;DHT22;6514;48.606;9.222;2023-07-31T09:09:28;26.40;99.90
12893;DHT22;6514;48.606;9.222;2023-07-31T09:11:57;26.20;99.90
12893;DHT22;6514;48.606;9.222;2023-07-31T09:14:25;25.60;99.90
12893;DHT22;6514;48.606;9.222;2023-07-31T09:16:53;25.00;99.90
12893;DHT22;6514;48.606;9.222;2023-07-31T09:19:27;24.70;99.90
12893;DHT22;6514;48.606;9.222;2023-07-31T09:21:54;24.70;99.90
12893;DHT22;6514;48.606;9.222;2023-07-31T09:24:28;25.00;99.90
12893;DHT22;6514;48.606;9.222;2023-07-31T09:26:58;24.90;99.90
12893;DHT22;6514;48.606;9.222;2023-07-31T09:29:26;24.60;99.90
12893;DHT22;6514;48.606;9.222;2023-07-31T09:31:53;24.30;99.90
12893;DHT22;6514;48.606;9.222;2023-07-31T09:34:28;24.00;99.90
12893;DHT22;6514;48.606;9.222;2023-07-31T09:36:57;23.80;99.90
12893;DHT22;6514;48.606;9.222;2023-07-31T09:39:24;23.60;99.90
12893;DHT22;6514;48.606;9.222;2023-07-31T09:41:54;23.30;99.90
12893;DHT22;6514;48.606;9.222;2023-07-31T09:44:37;23.40;99.90
12893;DHT22;6514;48.606;9.222;2023-07-31T09:47:05;23.50;99.90
12893;DHT22;6514;48.606;9.222;2023-07-31T09:49:32;23.30;99.90
12893;DHT22;6514;48.606;9.222;2023-07-31T09:51:59;23.20;99.90
12893;DHT22;6514;48.606;9.222;2023-07-31T09:54:26;23.20;99.90
12893;DHT22;6514;48.606;9.222;2023-07-31T09:56:53;23.40;99.90
12893;DHT22;6514;48.606;9.222;2023-07-31T09:59:22;23.50;99.90
12893;DHT22;6514;48.606;9.222;2023-07-31T10:01:49;23.50;99.90
12893;DHT22;6514;48.606;9.222;2023-07-31T10:04:17;23.50;99.90
12893;DHT22;6514;48.606;9.222;2023-07-31T10:06:49;23.40;99.90
12893;DHT22;6514;48.606;9.222;2023-07-31T10:09:17;23.30;99.90
12893;DHT22;6514;48.606;9.222;2023-07-31T10:11:47;23.20;99.90
12893;DHT22;6514;48.606;9.222;2023-07-31T10:14:17;23.30;99.90
12893;DHT22;6514;48.606;9.222;2023-07-31T10:16:46;23.30;99.90
12893;DHT22;6514;48.606;9.222;2023-07-31T10:19:14;23.80;99.90
12893;DHT22;6514;48.606;9.222;2023-07-31T10:21:42;24.30;99.90
12893;DHT22;6514;48.606;9.222;2023-07-31T10:24:09;24.70;99.90
12893;DHT22;6514;48.606;9.222;2023-07-31T10:26:37;24.90;99.90
12893;DHT22;6514;48.606;9.222;2023-07-31T10:29:05;25.10;99.90
12893;DHT22;6514;48.606;9.222;2023-07-31T10:31:34;25.80;99.90
12893;DHT22;6514;48.606;9.222;2023-07-31T10:34:03;26.20;99.90
12893;DHT22;6514;48.606;9.222;2023-07-31T10:36:30;26.40;99.90
12893;DHT22;6514;48.606;9.222;2023-07-31T10:38:57;26.60;99.90
12893;DHT22;6514;48.606;9.222;2023-07-31T10:41:29;26.80;99.90
12893;DHT22;6514;48.606;9.222;2023-07-31T10:43:58;27.00;99.90
12893;DHT22;6514;48.606;9.222;2023-07-31T10:46:25;27.50;99.90
12893;DHT22;6514;48.606;9.222;2023-07-31T10:48:58;27.60;99.90
12893;DHT22;6514;48.606;9.222;2023-07-31T10:51:32;27.80;99.90
12893;DHT22;6514;48.606;9.222;2023-07-31T10:54:10;28.20;99.90
12893;DHT22;6514;48.606;9.222;2023-07-31T10:56:38;28.60;99.90
12893;DHT22;6514;48.606;9.222;2023-07-31T10:59:05;28.60;99.90
12893;DHT22;6514;48.606;9.222;2023-07-31T11:01:49;28.40;99.90
12893;DHT22;6514;48.606;9.222;2023-07-31T11:04:22;27.90;99.90
12893;DHT22;6514;48.606;9.222;2023-07-31T11:06:57;27.50;99.90
12893;DHT22;6514;48.606;9.222;2023-07-31T11:09:27;27.30;99.90
12893;DHT22;6514;48.606;9.222;2023-07-31T11:11:56;26.90;99.90
12893;DHT22;6514;48.606;9.222;2023-07-31T11:14:23;26.50;99.90
12893;DHT22;6514;48.606;9.222;2023-07-31T11:16:50;26.30;99.90
12893;DHT22;6514;48.606;9.222;2023-07-31T11:19:21;26.40;99.90
12893;DHT22;6514;48.606;9.222;2023-07-31T11:21:49;26.60;99.90
12893;DHT22;6514;48.606;9.222;2023-07-31T11:24:17;26.40;99.90
12893;DHT22;6514;48.606;9.222;2023-07-31T11:26:49;26.30;99.90
12893;DHT22;6514;48.606;9.222;2023-07-31T11:29:16;26.10;99.90
12893;DHT22;6514;48.606;9.222;2023-07-31T11:31:42;25.80;99.90
12893;DHT22;6514;48.606;9.222;2023-07-31T11:34:09;25.50;99.90
12893;DHT22;6514;48.606;9.222;2023-07-31T11:36:36;25.30;99.90
12893;DHT22;6514;48.606;9.222;2023-07-31T11:39:07;25.20;99.90
12893;DHT22;6514;48.606;9.222;2023-07-31T11:41:35;25.00;99.90
12893;DHT22;6514;48.606;9.222;2023-07-31T11:44:02;24.90;99.90
12893;DHT22;6514;48.606;9.222;2023-07-31T11:46:30;24.90;99.90
12893;DHT22;6514;48.606;9.222;2023-07-31T11:48:59;24.70;99.90
12893;DHT22;6514;48.606;9.222;2023-07-31T11:51:27;24.50;99.90
12893;DHT22;6514;48.606;9.222;2023-07-31T11:53:58;24.50;99.90
12893;DHT22;6514;48.606;9.222;2023-07-31T11:56:25;24.50;99.90
12893;DHT22;6514;48.606;9.222;2023-07-31T11:58:57;24.50;99.90
12893;DHT22;6514;48.606;9.222;2023-07-31T12:01:26;24.70;99.90
12893;DHT22;6514;48.606;9.222;2023-07-31T12:03:54;24.70;99.90
12893;DHT22;6514;48.606;9.222;2023-07-31T12:06:22;24.80;99.90
12893;DHT22;6514;48.606;9.222;2023-07-31T12:09:01;24.70;99.90
12893;DHT22;6514;48.606;9.222;2023-07-31T12:13:57;24.40;99.90
12893;DHT22;6514;48.606;9.222;2023-07-31T12:16:26;24.30;99.90
12893;DHT22;6514;48.606;9.222;2023-07-31T12:18:53;24.40;99.90
12893;DHT22;6514;48.606;9.222;2023-07-31T12:21:20;24.30;99.90
12893;DHT22;6514;48.606;9.222;2023-07-31T12:23:47;24.20;99.90
12893;DHT22;6514;48.606;9.222;2023-07-31T12:26:15;23.90;99.90
12893;DHT22;6514;48.606;9.222;2023-07-31T12:28:43;23.80;99.90
12893;DHT22;6514;48.606;9.222;2023-07-31T12:31:12;23.60;99.90
12893;DHT22;6514;48.606;9.222;2023-07-31T12:33:40;23.70;99.90
12893;DHT22;6514;48.606;9.222;2023-07-31T12:36:09;23.70;99.90
12893;DHT22;6514;48.606;9.222;2023-07-31T12:38:36;23.60;99.90
12893;DHT22;6514;48.606;9.222;2023-07-31T12:41:03;23.40;99.90
12893;DHT22;6514;48.606;9.222;2023-07-31T12:43:30;23.10;99.90
12893;DHT22;6514;48.606;9.222;2023-07-31T12:45:57;23.00;99.90
12893;DHT22;6514;48.606;9.222;2023-07-31T12:48:25;22.80;99.90
12893;DHT22;6514;48.606;9.222;2023-07-31T12:50:52;22.70;99.90
12893;DHT22;6514;48.606;9.222;2023-07-31T12:53:19;22.70;99.90
12893;DHT22;6514;48.606;9.222;2023-07-31T12:55:46;23.00;99.90
12893;DHT22;6514;48.606;9.222;2023-07-31T12:58:12;23.20;99.90
12893;DHT22;6514;48.606;9.222;2023-07-31T13:00:39;23.40;99.90
12893;DHT22;6514;48.606;9.222;2023-07-31T13:03:06;23.80;99.90
12893;DHT22;6514;48.606;9.222;2023-07-31T13:05:36;24.10;99.90
12893;DHT22;6514;48.606;9.222;2023-07-31T13:08:03;24.40;99.90
12893;DHT22;6514;48.606;9.222;2023-07-31T13:10:30;24.70;99.90
12893;DHT22;6514;48.606;9.222;2023-07-31T13:12:56;24.90;99.90
12893;DHT22;6514;48.606;9.222;2023-07-31T13:15:23;24.90;99.90
12893;DHT22;6514;48.606;9.222;2023-07-31T13:17:50;25.00;99.90
12893;DHT22;6514;48.606;9.222;2023-07-31T13:20:17;25.20;99.90
12893;DHT22;6514;48.606;9.222;2023-07-31T13:22:45;25.40;99.90
12893;DHT22;6514;48.606;9.222;2023-07-31T13:25:12;25.60;99.90
12893;DHT22;6514;48.606;9.222;2023-07-31T13:27:39;25.70;99.90
12893;DHT22;6514;48.606;9.222;2023-07-31T13:30:07;25.90;99.90
12893;DHT22;6514;48.606;9.222;2023-07-31T13:32:34;26.10;99.90
12893;DHT22;6514;48.606;9.222;2023-07-31T13:35:04;26.30;99.90
12893;DHT22;6514;48.606;9.222;2023-07-31T13:37:31;26.30;99.90
12893;DHT22;6514;48.606;9.222;2023-07-31T13:39:59;26.10;99.90
12893;DHT22;6514;48.606;9.222;2023-07-31T13:42:26;25.80;99.90
12893;DHT22;6514;48.606;9.222;2023-07-31T13:44:54;25.60;99.90
12893;DHT22;6514;48.606;9.222;2023-07-31T13:47:21;25.20;99.90
12893;DHT22;6514;48.606;9.222;2023-07-31T13:49:48;24.80;99.90
12893;DHT22;6514;48.606;9.222;2023-07-31T13:52:15;24.50;99.90
12893;DHT22;6514;48.606;9.222;2023-07-31T13:54:42;24.20;99.90
12893;DHT22;6514;48.606;9.222;2023-07-31T13:57:10;23.80;99.90
12893;DHT22;6514;48.606;9.222;2023-07-31T13:59:37;23.50;99.90
12893;DHT22;6514;48.606;9.222;2023-07-31T14:02:04;23.40;99.90
12893;DHT22;6514;48.606;9.222;2023-07-31T14:04:31;23.40;99.90
12893;DHT22;6514;48.606;9.222;2023-07-31T14:06:58;23.20;99.90
12893;DHT22;6514;48.606;9.222;2023-07-31T14:09:25;22.90;99.90
12893;DHT22;6514;48.606;9.222;2023-07-31T14:11:52;22.80;99.90
12893;DHT22;6514;48.606;9.222;2023-07-31T14:14:20;22.70;99.90
12893;DHT22;6514;48.606;9.222;2023-07-31T14:16:47;22.50;99.90
12893;DHT22;6514;48.606;9.222;2023-07-31T14:19:13;22.40;99.90
12893;DHT22;6514;48.606;9.222;2023-07-31T14:21:40;22.30;99.90
12893;DHT22;6514;48.606;9.222;2023-07-31T14:24:07;22.20;99.90
12893;DHT22;6514;48.606;9.222;2023-07-31T14:26:34;22.20;99.90
12893;DHT22;6514;48.606;9.222;2023-07-31T14:29:00;22.10;99.90
12893;DHT22;6514;48.606;9.222;2023-07-31T14:31:29;22.10;99.90
12893;DHT22;6514;48.606;9.222;2023-07-31T14:33:55;22.20;99.90
12893;DHT22;6514;48.606;9.222;2023-07-31T14:36:22;22.40;99.90
12893;DHT22;6514;48.606;9.222;2023-07-31T14:38:49;22.50;99.90
12893;DHT22;6514;48.606;9.222;2023-07-31T14:41:16;22.60;99.90
12893;DHT22;6514;48.606;9.222;2023-07-31T14:43:43;22.70;99.90
12893;DHT22;6514;48.606;9.222;2023-07-31T14:46:09;22.60;99.90
12893;DHT22;6514;48.606;9.222;2023-07-31T14:48:38;22.60;99.90
12893;DHT22;6514;48.606;9.222;2023-07-31T14:51:04;22.50;99.90
12893;DHT22;6514;48.606;9.222;2023-07-31T14:53:31;22.50;99.90
12893;DHT22;6514;48.606;9.222;2023-07-31T14:55:58;22.50;99.90
12893;DHT22;6514;48.606;9.222;2023-07-31T14:58:25;22.50;99.90
12893;DHT22;6514;48.606;9.222;2023-07-31T15:00:52;22.60;99.90
12893;DHT22;6514;48.606;9.222;2023-07-31T15:03:19;22.60;99.90
12893;DHT22;6514;48.606;9.222;2023-07-31T15:05:47;22.60;99.90
12893;DHT22;6514;48.606;9.222;2023-07-31T15:08:14;22.60;99.90
12893;DHT22;6514;48.606;9.222;2023-07-31T15:10:41;22.60;99.90
12893;DHT22;6514;48.606;9.222;2023-07-31T15:13:07;22.50;99.90
12893;DHT22;6514;48.606;9.222;2023-07-31T15:15:34;22.50;99.90
12893;DHT22;6514;48.606;9.222;2023-07-31T15:18:01;22.50;99.90
12893;DHT22;6514;48.606;9.222;2023-07-31T15:20:29;21.80;99.90
12893;DHT22;6514;48.606;9.222;2023-07-31T15:22:57;22.40;99.90
12893;DHT22;6514;48.606;9.222;2023-07-31T15:25:24;22.30;99.90
12893;DHT22;6514;48.606;9.222;2023-07-31T15:27:50;22.20;99.90
12893;DHT22;6514;48.606;9.222;2023-07-31T15:30:17;22.10;99.90
12893;DHT22;6514;48.606;9.222;2023-07-31T15:32:44;22.10;99.90
12893;DHT22;6514;48.606;9.222;2023-07-31T15:35:14;22.20;99.90
12893;DHT22;6514;48.606;9.222;2023-07-31T15:37:41;22.20;99.90
12893;DHT22;6514;48.606;9.222;2023-07-31T15:40:10;22.40;99.90
12893;DHT22;6514;48.606;9.222;2023-07-31T15:42:43;22.50;99.90
12893;DHT22;6514;48.606;9.222;2023-07-31T15:45:09;22.70;99.90
12893;DHT22;6514;48.606;9.222;2023-07-31T15:47:36;22.80;99.90
12893;DHT22;6514;48.606;9.222;2023-07-31T15:50:02;22.90;99.90